Landis, Arkansas
Current Conditions -  °F | °C
As of 1:55 PM on Wednesday 28 Jan 2015 (Local Time) from KFLP Reporting Station
Clear Clear  
Wind Chill: 63°   Ceiling: Unl
Heat Index: 63°   Visibility: 10mi
Dew Point: 36°   Wind: 12mph
Humidity: 37%   Direction: 170°S
Pressure: 30.04"   Gusts: NA
Location:  35.9407°N, 92.655°W
Report Text: KFLP 281955Z 17010KT 10SM CLR 17/02 A3004 RMK AO1
Loading
Personal Weather Stations






























Interactive Weather Map New forecast layout! Learn more

10-Day Weather Forecast

Advertisements
Track Severe Weather on mobile